createdAt,value
2022-09-28T00:01:44.630Z,64.10
2022-09-28T00:04:12.171Z,63.90
2022-09-28T00:06:39.267Z,63.90
2022-09-28T00:09:05.879Z,65.40
2022-09-28T00:11:33.368Z,64.70
2022-09-28T00:14:02.380Z,64.20
2022-09-28T00:16:31.529Z,64.60
2022-09-28T00:18:58.666Z,63.90
2022-09-28T00:21:26.943Z,64.00
2022-09-28T00:24:12.672Z,64.40
2022-09-28T00:26:41.100Z,64.70
2022-09-28T00:29:08.651Z,64.50
2022-09-28T00:31:35.488Z,64.20
2022-09-28T00:34:02.269Z,63.90
2022-09-28T00:36:29.803Z,63.90
2022-09-28T00:38:56.547Z,63.90
2022-09-28T00:41:23.978Z,65.00
2022-09-28T00:43:50.799Z,64.10
2022-09-28T00:46:46.741Z,63.90
2022-09-28T00:49:16.012Z,64.00
2022-09-28T00:51:44.478Z,63.80
2022-09-28T00:54:11.955Z,63.90
2022-09-28T00:56:40.354Z,63.70
2022-09-28T00:59:08.925Z,63.80
2022-09-28T01:01:36.318Z,64.20
2022-09-28T01:04:04.162Z,64.30
2022-09-28T01:06:33.269Z,64.30
2022-09-28T01:09:02.592Z,63.80
2022-09-28T01:11:31.228Z,63.80
2022-09-28T01:13:58.469Z,63.70
2022-09-28T01:16:45.183Z,64.40
2022-09-28T01:19:24.978Z,63.80
2022-09-28T01:22:11.722Z,64.50
2022-09-28T01:24:38.366Z,63.70
2022-09-28T01:27:14.308Z,63.50
2022-09-28T01:29:46.672Z,63.90
2022-09-28T01:32:21.378Z,63.50
2022-09-28T01:35:06.782Z,63.40
2022-09-28T01:37:55.040Z,63.50
2022-09-28T01:40:22.549Z,63.40
2022-09-28T01:42:51.666Z,63.40
2022-09-28T01:45:22.744Z,63.50
2022-09-28T01:47:50.031Z,63.50
2022-09-28T01:50:20.319Z,63.50
2022-09-28T01:52:47.016Z,63.60
2022-09-28T01:55:13.697Z,63.40
2022-09-28T01:57:40.515Z,63.40
2022-09-28T02:00:08.575Z,63.70
2022-09-28T02:02:37.798Z,63.30
2022-09-28T02:05:08.952Z,63.50
2022-09-28T02:07:40.211Z,63.30
2022-09-28T02:10:21.893Z,63.90
2022-09-28T02:12:54.548Z,63.50
2022-09-28T02:15:25.655Z,63.40
2022-09-28T02:17:52.373Z,64.50
2022-09-28T02:20:20.416Z,63.80
2022-09-28T02:22:49.253Z,63.40
2022-09-28T02:25:21.972Z,63.30
2022-09-28T02:28:05.234Z,63.60
2022-09-28T02:30:33.170Z,63.40
2022-09-28T02:33:03.709Z,63.30
2022-09-28T02:35:30.431Z,63.30
2022-09-28T02:37:57.631Z,63.50
2022-09-28T02:40:26.164Z,64.40
2022-09-28T02:42:55.972Z,63.70
2022-09-28T02:45:28.455Z,64.90
2022-09-28T02:48:04.326Z,63.30
2022-09-28T02:50:37.106Z,63.40
2022-09-28T02:53:15.119Z,63.30
2022-09-28T02:56:00.372Z,63.20
2022-09-28T02:58:47.895Z,63.30
2022-09-28T03:01:14.555Z,63.60
2022-09-28T03:03:41.175Z,63.60
2022-09-28T03:06:11.451Z,65.20
2022-09-28T03:08:45.002Z,63.40
2022-09-28T03:11:30.226Z,63.50
2022-09-28T03:13:57.035Z,63.40
2022-09-28T03:16:23.770Z,63.60
2022-09-28T03:18:50.480Z,63.30
2022-09-28T03:21:17.119Z,64.00
2022-09-28T03:23:43.898Z,63.40
2022-09-28T03:26:13.745Z,63.40
2022-09-28T03:28:40.439Z,63.50
2022-09-28T03:31:07.202Z,64.20
2022-09-28T03:33:33.879Z,63.40
2022-09-28T03:36:00.601Z,63.20
2022-09-28T03:38:27.245Z,63.30
2022-09-28T03:40:55.174Z,63.70
2022-09-28T03:43:22.047Z,64.20
2022-09-28T03:45:53.083Z,63.10
2022-09-28T03:48:31.842Z,63.10
2022-09-28T03:51:00.277Z,63.20
2022-09-28T03:53:26.998Z,64.10
2022-09-28T03:55:53.738Z,65.00
2022-09-28T03:58:21.023Z,63.70
2022-09-28T04:00:48.347Z,63.80
2022-09-28T04:03:15.058Z,63.90
2022-09-28T04:05:51.769Z,64.00
2022-09-28T04:08:18.787Z,64.20
2022-09-28T04:10:45.754Z,64.30
2022-09-28T04:13:12.581Z,64.30
2022-09-28T04:15:39.220Z,64.20
2022-09-28T04:18:09.412Z,64.10
2022-09-28T04:20:36.087Z,65.00
2022-09-28T04:23:02.691Z,64.50
2022-09-28T04:25:29.314Z,65.20
2022-09-28T04:30:23.471Z,64.20
2022-09-28T04:32:50.183Z,64.40
2022-09-28T04:35:16.835Z,64.30
2022-09-28T04:37:43.460Z,64.30
2022-09-28T04:40:10.226Z,64.10
2022-09-28T04:42:36.920Z,64.10
2022-09-28T04:45:04.881Z,64.10
2022-09-28T04:47:31.596Z,64.30
2022-09-28T04:49:58.249Z,64.40
2022-09-28T04:52:26.748Z,64.40
2022-09-28T04:54:53.397Z,64.30
2022-09-28T04:57:20.065Z,64.30
2022-09-28T04:59:46.734Z,64.30
2022-09-28T05:02:15.057Z,64.10
2022-09-28T05:04:42.015Z,64.10
2022-09-28T05:07:09.311Z,63.90
2022-09-28T05:09:38.436Z,63.80
2022-09-28T05:12:05.358Z,63.70
2022-09-28T05:14:32.019Z,63.50
2022-09-28T05:16:59.013Z,63.40
2022-09-28T05:19:25.711Z,63.60
2022-09-28T05:21:52.411Z,64.40
2022-09-28T05:24:18.994Z,64.20
2022-09-28T05:26:45.643Z,63.90
2022-09-28T05:29:12.295Z,63.90
2022-09-28T05:31:38.952Z,63.70
2022-09-28T05:34:05.700Z,63.60
2022-09-28T05:36:32.656Z,63.50
2022-09-28T05:38:59.398Z,63.10
2022-09-28T05:41:26.126Z,63.10
2022-09-28T05:43:52.842Z,63.30
2022-09-28T05:46:21.186Z,63.30
2022-09-28T05:48:47.817Z,63.40
2022-09-28T05:51:14.450Z,63.50
2022-09-28T05:53:41.144Z,63.70
2022-09-28T05:56:07.787Z,63.70
2022-09-28T05:58:34.406Z,63.70
2022-09-28T06:01:01.135Z,63.70
2022-09-28T06:03:27.873Z,63.60
2022-09-28T06:05:54.541Z,63.60
2022-09-28T06:08:21.221Z,63.60
2022-09-28T06:10:47.876Z,63.60
2022-09-28T06:13:14.571Z,63.60
2022-09-28T06:15:42.319Z,63.40
2022-09-28T06:18:16.097Z,63.70
2022-09-28T06:20:43.216Z,63.50
2022-09-28T06:23:10.874Z,63.50
2022-09-28T06:25:37.545Z,63.30
2022-09-28T06:28:05.707Z,63.50
2022-09-28T06:30:33.198Z,63.50
2022-09-28T06:33:00.773Z,63.40
2022-09-28T06:35:30.318Z,63.30
2022-09-28T06:37:57.475Z,63.60
2022-09-28T06:40:24.912Z,63.50
2022-09-28T06:42:55.436Z,63.80
2022-09-28T06:45:24.512Z,63.60
2022-09-28T06:47:58.467Z,63.50
2022-09-28T06:50:29.202Z,63.90
2022-09-28T06:52:57.153Z,64.50
2022-09-28T06:55:24.029Z,64.40
2022-09-28T06:57:58.217Z,63.50
2022-09-28T07:00:25.549Z,64.20
2022-09-28T07:02:52.233Z,64.10
2022-09-28T07:05:26.674Z,63.70
2022-09-28T07:07:55.335Z,63.60
2022-09-28T07:10:25.897Z,63.50
2022-09-28T07:12:52.644Z,63.60
2022-09-28T07:15:19.895Z,63.60
2022-09-28T07:17:58.414Z,63.60
2022-09-28T07:20:27.593Z,63.70
2022-09-28T07:22:54.943Z,63.80
2022-09-28T07:25:22.630Z,63.70
2022-09-28T07:27:49.747Z,63.70
2022-09-28T07:30:17.277Z,63.70
2022-09-28T07:32:45.565Z,63.90
2022-09-28T07:35:12.204Z,63.90
2022-09-28T07:37:38.864Z,63.90
2022-09-28T07:40:24.753Z,64.00
2022-09-28T07:42:51.592Z,64.10
2022-09-28T07:45:20.723Z,64.10
2022-09-28T07:47:47.386Z,64.10
2022-09-28T07:50:14.061Z,64.10
2022-09-28T07:52:40.719Z,64.00
2022-09-28T07:55:07.742Z,64.80
2022-09-28T07:57:35.401Z,64.10
2022-09-28T08:00:02.581Z,64.10
2022-09-28T08:02:32.365Z,64.30
2022-09-28T08:04:59.774Z,64.10
2022-09-28T08:07:26.559Z,64.20
2022-09-28T08:09:53.343Z,64.00
2022-09-28T08:12:21.115Z,64.10
2022-09-28T08:14:48.109Z,64.80
2022-09-28T08:17:15.781Z,64.00
2022-09-28T08:20:01.174Z,64.00
2022-09-28T08:22:32.241Z,63.90
2022-09-28T08:24:58.979Z,64.10
2022-09-28T08:27:25.653Z,64.10
2022-09-28T08:29:52.272Z,64.00
2022-09-28T08:32:19.558Z,64.00
2022-09-28T08:34:46.197Z,64.10
2022-09-28T08:37:12.846Z,64.30
2022-09-28T08:39:39.489Z,64.10
2022-09-28T08:42:22.659Z,64.10
2022-09-28T08:44:51.917Z,64.10
2022-09-28T08:47:40.086Z,64.20
2022-09-28T08:50:07.691Z,64.20
2022-09-28T08:52:37.888Z,64.10
2022-09-28T08:55:11.786Z,64.00
2022-09-28T08:57:45.125Z,64.10
2022-09-28T09:00:17.356Z,64.10
2022-09-28T09:02:44.074Z,64.10
2022-09-28T09:05:14.839Z,64.10
2022-09-28T09:07:41.525Z,64.10
2022-09-28T09:10:08.378Z,63.90
2022-09-28T09:12:55.270Z,64.10
2022-09-28T09:15:33.862Z,64.10
2022-09-28T09:18:03.530Z,64.00
2022-09-28T09:20:37.569Z,64.10
2022-09-28T09:23:10.590Z,64.10
2022-09-28T09:25:40.227Z,64.10
2022-09-28T09:28:26.244Z,64.00
2022-09-28T09:31:08.667Z,63.90
2022-09-28T09:33:44.644Z,63.80
2022-09-28T09:36:34.833Z,63.70
2022-09-28T09:39:07.614Z,63.80
2022-09-28T09:41:40.386Z,63.70
2022-09-28T09:44:10.280Z,63.80
2022-09-28T09:46:43.075Z,63.80
2022-09-28T09:49:12.762Z,63.60
2022-09-28T09:51:58.223Z,63.70
2022-09-28T09:54:30.943Z,64.30
2022-09-28T09:56:57.634Z,63.70
2022-09-28T09:59:32.403Z,63.70
2022-09-28T10:02:01.159Z,63.60
2022-09-28T10:04:30.954Z,63.70
2022-09-28T10:07:01.318Z,63.60
2022-09-28T10:09:30.606Z,63.70
2022-09-28T10:11:57.762Z,63.70
2022-09-28T10:14:25.019Z,63.80
2022-09-28T10:16:53.714Z,63.60
2022-09-28T10:19:25.767Z,63.60
2022-09-28T10:21:52.917Z,63.50
2022-09-28T10:24:36.566Z,63.70
2022-09-28T10:27:05.506Z,63.60
2022-09-28T10:29:37.396Z,63.50
2022-09-28T10:32:17.080Z,63.70
2022-09-28T10:34:47.497Z,63.60
2022-09-28T10:37:18.596Z,63.70
2022-09-28T10:39:55.346Z,63.70
2022-09-28T10:42:31.699Z,63.60
2022-09-28T10:45:04.753Z,63.60
2022-09-28T10:47:32.789Z,63.60
2022-09-28T10:49:59.726Z,63.70
2022-09-28T10:52:40.315Z,63.60
2022-09-28T10:55:32.178Z,63.60
2022-09-28T10:58:19.876Z,63.60
2022-09-28T11:00:47.208Z,63.70
2022-09-28T11:03:22.725Z,63.60
2022-09-28T11:05:56.683Z,63.70
2022-09-28T11:08:26.482Z,63.90
2022-09-28T11:11:22.876Z,64.20
2022-09-28T11:13:51.366Z,64.10
2022-09-28T11:16:26.125Z,64.00
2022-09-28T11:18:53.437Z,63.90
2022-09-28T11:21:32.749Z,64.00
2022-09-28T11:24:19.855Z,64.00
2022-09-28T11:26:48.463Z,63.90
2022-09-28T11:29:33.654Z,64.00
2022-09-28T11:32:01.460Z,64.00
2022-09-28T11:34:57.619Z,63.80
2022-09-28T11:37:28.007Z,63.90
2022-09-28T11:40:05.555Z,63.90
2022-09-28T11:42:50.805Z,63.90
2022-09-28T11:45:17.397Z,64.10
2022-09-28T11:47:50.580Z,64.20
2022-09-28T11:50:24.173Z,64.30
2022-09-28T11:52:57.397Z,64.10
2022-09-28T11:55:42.104Z,64.10
2022-09-28T11:58:24.005Z,64.00
2022-09-28T12:01:03.764Z,64.10
2022-09-28T12:03:42.325Z,64.10
2022-09-28T12:06:11.919Z,64.10
2022-09-28T12:08:44.774Z,64.20
2022-09-28T12:11:11.345Z,64.20
2022-09-28T12:13:47.733Z,64.30
2022-09-28T12:16:53.143Z,64.40
2022-09-28T12:19:16.613Z,64.30
2022-09-28T12:21:57.413Z,64.20
2022-09-28T12:24:28.629Z,64.30
2022-09-28T12:26:58.554Z,64.20
2022-09-28T12:29:47.474Z,64.40
2022-09-28T12:32:32.660Z,64.30
2022-09-28T12:34:59.442Z,64.40
2022-09-28T12:37:28.957Z,64.60
2022-09-28T12:40:08.135Z,64.80
2022-09-28T12:42:41.193Z,64.70
2022-09-28T12:45:27.866Z,64.50
2022-09-28T12:48:03.553Z,64.50
2022-09-28T12:50:56.748Z,64.60
2022-09-28T12:53:24.240Z,64.50
2022-09-28T12:55:51.078Z,64.50
2022-09-28T12:58:36.512Z,64.60
2022-09-28T13:01:03.284Z,64.50
2022-09-28T13:03:35.719Z,64.50
2022-09-28T13:06:11.562Z,64.50
2022-09-28T13:08:41.342Z,64.50
2022-09-28T13:11:15.751Z,64.50
2022-09-28T13:13:58.065Z,64.30
2022-09-28T13:16:24.800Z,64.60
2022-09-28T13:19:24.129Z,64.80
2022-09-28T13:22:03.245Z,64.50
2022-09-28T13:24:33.776Z,64.50
2022-09-28T13:27:06.645Z,64.60
2022-09-28T13:29:34.903Z,64.60
2022-09-28T13:32:03.338Z,64.70
2022-09-28T13:34:32.915Z,64.60
2022-09-28T13:37:18.874Z,64.60
2022-09-28T13:39:45.510Z,64.80
2022-09-28T13:42:22.051Z,64.70
2022-09-28T13:45:00.248Z,64.70
2022-09-28T13:47:50.007Z,64.60
2022-09-28T13:50:16.703Z,64.60
2022-09-28T13:52:55.514Z,64.60
2022-09-28T13:55:28.883Z,64.90
2022-09-28T13:57:58.770Z,64.70
2022-09-28T14:00:28.296Z,64.70
2022-09-28T14:03:14.999Z,64.70
2022-09-28T14:05:45.386Z,64.80
2022-09-28T14:08:30.125Z,64.90
2022-09-28T14:10:57.905Z,64.80
2022-09-28T14:13:42.966Z,64.80
2022-09-28T14:16:18.795Z,64.70
2022-09-28T14:18:54.940Z,64.60
2022-09-28T14:21:40.435Z,64.70
2022-09-28T14:24:10.305Z,64.80
2022-09-28T14:26:55.870Z,64.70
2022-09-28T14:29:28.784Z,64.60
2022-09-28T14:32:04.172Z,64.70
2022-09-28T14:34:37.081Z,64.70
2022-09-28T14:37:24.033Z,64.60
2022-09-28T14:40:09.771Z,64.50
2022-09-28T14:42:36.497Z,64.60
2022-09-28T14:45:06.693Z,64.70
2022-09-28T14:47:35.242Z,64.70
2022-09-28T14:50:18.174Z,65.10
2022-09-28T14:52:50.500Z,64.70
2022-09-28T14:55:19.280Z,64.70
2022-09-28T14:57:51.617Z,64.70
2022-09-28T15:00:22.689Z,64.60
2022-09-28T15:02:52.422Z,64.70
2022-09-28T15:05:36.011Z,64.60
2022-09-28T15:08:02.720Z,64.50
2022-09-28T15:10:34.259Z,64.70
2022-09-28T15:13:02.853Z,64.40
2022-09-28T15:15:35.783Z,64.50
2022-09-28T15:18:08.322Z,64.20
2022-09-28T15:20:38.014Z,64.30
2022-09-28T15:23:04.655Z,64.30
2022-09-28T15:25:32.423Z,64.30
2022-09-28T15:28:02.336Z,64.30
2022-09-28T15:30:31.754Z,64.30
2022-09-28T15:33:18.357Z,64.30
2022-09-28T15:36:01.788Z,64.30
2022-09-28T15:38:29.474Z,64.30
2022-09-28T15:40:57.464Z,64.50
2022-09-28T15:43:30.594Z,64.50
2022-09-28T15:46:07.888Z,64.40
2022-09-28T15:48:40.786Z,64.50
2022-09-28T15:51:12.054Z,64.50
2022-09-28T15:53:43.303Z,64.50
2022-09-28T15:56:11.690Z,64.50
2022-09-28T15:58:38.964Z,64.40
2022-09-28T16:01:17.459Z,64.40
2022-09-28T16:03:44.662Z,64.40
2022-09-28T16:06:11.371Z,64.40
2022-09-28T16:08:42.883Z,64.40
2022-09-28T16:11:18.582Z,64.40
2022-09-28T16:14:06.287Z,64.50
2022-09-28T16:16:35.285Z,64.50
2022-09-28T16:19:02.747Z,64.50
2022-09-28T16:21:29.436Z,64.40
2022-09-28T16:23:56.193Z,64.40
2022-09-28T16:26:32.293Z,64.40
2022-09-28T16:28:59.009Z,64.40
2022-09-28T16:31:33.251Z,64.30
2022-09-28T16:34:08.492Z,64.30
2022-09-28T16:36:43.645Z,64.20
2022-09-28T16:39:13.538Z,64.30
2022-09-28T16:41:41.921Z,64.20
2022-09-28T16:44:16.781Z,64.20
2022-09-28T16:46:44.337Z,64.30
2022-09-28T16:49:13.108Z,64.50
2022-09-28T16:51:40.182Z,64.50
2022-09-28T16:54:32.142Z,64.40
2022-09-28T16:56:58.857Z,64.40
2022-09-28T16:59:25.530Z,64.30
2022-09-28T17:01:52.235Z,65.00
2022-09-28T17:04:18.963Z,64.30
2022-09-28T17:06:45.711Z,64.30
2022-09-28T17:09:12.899Z,64.30
2022-09-28T17:11:39.873Z,64.20
2022-09-28T17:14:06.661Z,64.20
2022-09-28T17:17:06.121Z,64.30
2022-09-28T17:19:24.978Z,64.30
2022-09-28T17:21:52.326Z,64.30
2022-09-28T17:24:19.538Z,64.30
2022-09-28T17:26:49.035Z,64.30
2022-09-28T17:29:16.005Z,64.20
2022-09-28T17:31:43.294Z,64.20
2022-09-28T17:34:10.691Z,64.30
2022-09-28T17:36:37.692Z,64.20
2022-09-28T17:39:04.988Z,64.10
2022-09-28T17:41:32.251Z,64.10
2022-09-28T17:44:00.757Z,64.10
2022-09-28T17:46:28.912Z,64.20
2022-09-28T17:48:57.577Z,64.20
2022-09-28T17:51:24.289Z,64.20
2022-09-28T17:53:51.523Z,64.40
2022-09-28T17:56:18.140Z,64.40
2022-09-28T17:58:45.344Z,64.40
2022-09-28T18:01:12.121Z,64.20
2022-09-28T18:03:38.863Z,64.40
2022-09-28T18:06:06.637Z,64.30
2022-09-28T18:08:33.826Z,64.50
2022-09-28T18:11:01.692Z,64.50
2022-09-28T18:13:28.500Z,64.40
2022-09-28T18:15:55.889Z,64.30
2022-09-28T18:18:23.379Z,64.30
2022-09-28T18:20:50.434Z,64.30
2022-09-28T18:23:17.237Z,64.30
2022-09-28T18:25:45.142Z,64.10
2022-09-28T18:28:12.438Z,64.00
2022-09-28T18:30:40.425Z,63.90
2022-09-28T18:33:08.599Z,63.80
2022-09-28T18:35:35.495Z,63.70
2022-09-28T18:38:04.010Z,63.80
2022-09-28T18:40:31.089Z,63.60
2022-09-28T18:42:57.798Z,63.90
2022-09-28T18:45:24.389Z,63.70
2022-09-28T18:47:51.031Z,63.80
2022-09-28T18:50:17.898Z,63.70
2022-09-28T18:52:44.931Z,63.90
2022-09-28T18:55:11.827Z,63.90
2022-09-28T18:57:39.814Z,64.30
2022-09-28T19:00:07.838Z,64.40
2022-09-28T19:02:35.358Z,64.30
2022-09-28T19:05:02.222Z,64.20
2022-09-28T19:07:28.961Z,64.10
2022-09-28T19:09:55.859Z,63.90
2022-09-28T19:12:22.500Z,63.70
2022-09-28T19:14:49.133Z,63.60
2022-09-28T19:17:15.898Z,63.50
2022-09-28T19:19:42.790Z,63.50
2022-09-28T19:22:09.448Z,63.60
2022-09-28T19:24:36.042Z,63.50
2022-09-28T19:27:02.740Z,64.70
2022-09-28T19:29:29.486Z,63.70
2022-09-28T19:31:57.098Z,63.70
2022-09-28T19:34:26.966Z,63.70
2022-09-28T19:36:53.693Z,63.80
2022-09-28T19:39:20.314Z,63.80
2022-09-28T19:41:51.412Z,63.80
2022-09-28T19:44:28.726Z,63.90
2022-09-28T19:46:55.429Z,64.00
2022-09-28T19:49:22.899Z,65.00
2022-09-28T19:54:38.171Z,63.90
2022-09-28T19:57:07.680Z,63.80
2022-09-28T19:59:35.652Z,63.90
2022-09-28T20:02:03.177Z,63.90
2022-09-28T20:04:30.026Z,64.60
2022-09-28T20:06:56.807Z,64.00
2022-09-28T20:09:23.490Z,63.80
2022-09-28T20:11:53.425Z,64.00
2022-09-28T20:14:22.439Z,64.00
2022-09-28T20:16:51.249Z,64.70
2022-09-28T20:19:21.080Z,64.00
2022-09-28T20:21:48.391Z,64.00
2022-09-28T20:24:17.117Z,64.10
2022-09-28T20:26:44.614Z,64.50
2022-09-28T20:29:11.461Z,64.00
2022-09-28T20:31:39.325Z,64.10
2022-09-28T20:34:06.266Z,63.90
2022-09-28T20:36:33.212Z,63.90
2022-09-28T20:39:03.043Z,63.80
2022-09-28T20:41:34.821Z,63.90
2022-09-28T20:44:05.409Z,64.00
2022-09-28T20:46:33.347Z,63.90
2022-09-28T20:49:00.167Z,64.10
2022-09-28T20:51:26.919Z,64.10
2022-09-28T20:53:54.673Z,63.90
2022-09-28T20:56:22.655Z,64.00
2022-09-28T20:58:51.079Z,63.70
2022-09-28T21:01:19.489Z,63.90
2022-09-28T21:03:48.134Z,63.90
2022-09-28T21:06:15.534Z,65.20
2022-09-28T21:08:42.476Z,63.90
2022-09-28T21:11:09.092Z,63.70
2022-09-28T21:13:35.756Z,63.30
2022-09-28T21:16:05.710Z,63.20
2022-09-28T21:18:32.393Z,63.30
2022-09-28T21:20:59.034Z,62.80
2022-09-28T21:23:25.659Z,64.10
2022-09-28T21:26:02.548Z,63.90
2022-09-28T21:28:29.213Z,63.50
2022-09-28T21:30:55.904Z,63.70
2022-09-28T21:33:22.570Z,64.50
2022-09-28T21:35:49.211Z,63.90
2022-09-28T21:38:15.811Z,64.00
2022-09-28T21:40:42.584Z,64.00
2022-09-28T21:43:09.364Z,63.80
2022-09-28T21:45:36.000Z,64.00
2022-09-28T21:48:02.789Z,64.00
2022-09-28T21:50:29.440Z,63.80
2022-09-28T21:52:56.160Z,64.00
2022-09-28T21:55:23.482Z,63.80
2022-09-28T21:57:50.874Z,63.70
2022-09-28T22:00:23.172Z,63.90
2022-09-28T22:02:50.864Z,63.70
2022-09-28T22:05:17.641Z,63.40
2022-09-28T22:07:44.669Z,63.40
2022-09-28T22:10:13.073Z,62.80
2022-09-28T22:12:39.699Z,63.50
2022-09-28T22:15:06.701Z,63.30
2022-09-28T22:17:33.344Z,63.40
2022-09-28T22:20:00.044Z,62.70
2022-09-28T22:22:29.148Z,63.20
2022-09-28T22:24:56.120Z,62.60
2022-09-28T22:27:24.035Z,62.50
2022-09-28T22:29:51.130Z,62.40
2022-09-28T22:32:17.856Z,63.10
2022-09-28T22:34:44.468Z,62.90
2022-09-28T22:37:11.194Z,62.50
2022-09-28T22:39:38.061Z,63.40
2022-09-28T22:42:04.869Z,62.70
2022-09-28T22:44:31.536Z,62.70
2022-09-28T22:46:58.174Z,62.70
2022-09-28T22:49:24.852Z,63.10
2022-09-28T22:51:51.806Z,62.50
2022-09-28T22:54:18.586Z,63.00
2022-09-28T22:56:45.368Z,62.50
2022-09-28T22:59:12.048Z,63.40
2022-09-28T23:01:38.745Z,62.60
2022-09-28T23:04:05.423Z,62.70
2022-09-28T23:06:33.149Z,63.40
2022-09-28T23:09:00.492Z,62.40
2022-09-28T23:11:27.577Z,62.30
2022-09-28T23:13:55.501Z,62.70
2022-09-28T23:16:24.805Z,62.80
2022-09-28T23:18:52.401Z,62.50
2022-09-28T23:21:19.959Z,62.30
2022-09-28T23:23:50.571Z,62.30
2022-09-28T23:26:18.468Z,62.50
2022-09-28T23:28:45.482Z,62.10
2022-09-28T23:31:14.211Z,62.30
2022-09-28T23:33:40.979Z,62.90
2022-09-28T23:36:07.890Z,62.30
2022-09-28T23:38:34.762Z,62.20
2022-09-28T23:41:01.521Z,62.30
2022-09-28T23:43:28.296Z,62.90
2022-09-28T23:45:54.944Z,62.60
2022-09-28T23:48:21.567Z,62.00
2022-09-28T23:50:48.291Z,62.00
2022-09-28T23:53:15.272Z,62.30
2022-09-28T23:55:42.353Z,62.10
2022-09-28T23:58:09.723Z,62.10
